Centerton, AR

6:22 PM CDT on May 04, 2015 (GMT -0500)
APRSWXNET | | Change Station
CLOSE
Current Station
Personal Weather Station
Location: Centerton, AR
Elevation: 1305 ft
Nearby Weather Stations

Elev 1305 ft 36.37 °N, 94.29 °W | Updated 29 minutes ago

Partly Cloudy
Partly Cloudy
79 °F
Feels Like 80 °F
N
6
Wind Variable Wind from SSW
Gusts 11.0 mph

Today
High -- | Low -- °F
--% Chance of Precip.
Yesterday
High -- | Low -- °F
Precip. -- in
6:21 AM 8:07 PM
Full, 99% visible
Pressure 30.08 in
Visibility 10.0 miles
Clouds Few 5000 ft
Scattered Clouds 7500 ft
Heat Index 80 °F
Dew Point 62 °F
Humidity 56%
Rainfall in
Snow Depth Not available.
UV 1 out of 12
Pollen 8.50 out of 12
Air Quality Not available.
Flu Activity No Activity
METAR KVBT 042315Z AUTO 19010KT 10SM FEW050 SCT075 26/13 A3008 RMK AO1

More Conditions Fewer Conditions

Pressure 30.08 in
Visibility 10.0 miles
Clouds Few 5000 ft
Scattered Clouds 7500 ft
Heat Index 80 °F
Dew Point 62 °F
Humidity 56%
Rainfall in
Snow Depth Not available.
UV 1 out of 12
Pollen 8.50 out of 12
Air Quality Not available.
Flu Activity No Activity
METAR KVBT 042315Z AUTO 19010KT 10SM FEW050 SCT075 26/13 A3008 RMK AO1

More Conditions Fewer Conditions

Nepal has a long way to go to dig out and rebuild from a devastating earthquake. We have teamed up with several charities and organizations to make contributing to the relief effort as easy as possible.
How you can help: Portlight Strategies | Red Cross

10-Day Weather Forecast

Almanac

Astronomy

May. 04, 2015 Rise Set
Actual Time
Civil Twilight
Nautical Twilight
Astronomical Twilight
Moon
Length of Visible Light
Length of Day
Tomorrow will be .
, % of the Moon is Illuminated

Today's Extremes

State Highs State Lows

Community

WunderPhotos

Upload Photos

1,818,726 photos uploaded!

WunderBlogs® & News

Nearby

Air Quality

  Air Quality AQ Index Pollutant
Not available.

Snow Depth

Station Depth Elevation

Earthquake Activity

City Distance Mag. Time & Date
Minimum magnitude displayed is 2.5.

Coastal Water Temperatures

Place Temperature

Stations

Nearby Weather Stations

Station Location Temp. Windchill Dew Point Humidity Wind Precip. Elev Updated Type